createdAt,value
2023-02-13T06:02:33.155Z,10.35
2023-02-13T06:07:37.247Z,9.23
2023-02-13T06:12:40.841Z,5.95
2023-02-13T06:17:45.862Z,5.82
2023-02-13T06:22:50.393Z,8.68
2023-02-13T06:27:54.057Z,8.55
2023-02-13T06:32:59.160Z,8.77
2023-02-13T06:38:02.932Z,7.87
2023-02-13T06:43:06.563Z,9.13
2023-02-13T06:48:11.629Z,5.40
2023-02-13T06:53:15.370Z,7.87
2023-02-13T06:58:19.783Z,3.75
2023-02-13T07:03:24.768Z,5.60
2023-02-13T07:08:28.636Z,6.95
2023-02-13T07:13:32.616Z,7.28
2023-02-13T07:18:38.589Z,4.25
2023-02-13T07:23:42.394Z,10.85
2023-02-13T07:28:46.319Z,7.22
2023-02-13T07:38:54.967Z,7.55
2023-02-13T07:43:58.726Z,5.37
2023-02-13T07:49:06.049Z,6.57
2023-02-13T07:54:10.212Z,9.85
2023-02-13T07:59:14.046Z,9.07
2023-02-13T08:04:19.313Z,7.00
2023-02-13T08:09:40.966Z,6.20
2023-02-13T08:14:44.847Z,8.38
2023-02-13T08:19:49.974Z,7.30
2023-02-13T08:24:53.649Z,6.72
2023-02-13T08:29:57.775Z,4.47
2023-02-13T08:35:02.923Z,7.62
2023-02-13T08:40:10.490Z,5.30
2023-02-13T08:45:14.121Z,7.50
2023-02-13T08:50:19.479Z,4.18
2023-02-13T08:55:23.301Z,4.65
2023-02-13T09:00:26.973Z,4.37
2023-02-13T09:05:33.059Z,3.95
2023-02-13T09:10:36.838Z,5.65
2023-02-13T09:15:41.290Z,5.25
2023-02-13T09:20:46.436Z,6.55
2023-02-13T09:25:50.098Z,13.15
2023-02-13T09:30:53.928Z,6.90
2023-02-13T09:35:59.220Z,7.62
2023-02-13T09:41:07.625Z,7.07
2023-02-13T09:46:16.754Z,7.22
2023-02-13T09:51:23.793Z,6.62
2023-02-13T09:56:40.355Z,10.68
2023-02-13T10:01:48.971Z,18.40
2023-02-13T10:06:59.902Z,5.28
2023-02-13T10:12:27.226Z,7.03
2023-02-13T10:17:36.891Z,9.23
2023-02-13T10:22:45.721Z,7.12
2023-02-13T10:27:53.151Z,6.72
2023-02-13T10:33:19.958Z,8.65
2023-02-13T10:38:25.840Z,6.18
2023-02-13T10:43:35.481Z,6.18
2023-02-13T10:49:03.003Z,6.70
2023-02-13T10:54:35.135Z,6.65
2023-02-13T10:59:54.104Z,5.15
2023-02-13T11:05:02.229Z,6.82
2023-02-13T11:10:17.942Z,7.32
2023-02-13T11:15:25.726Z,5.97
2023-02-13T11:20:36.514Z,10.00
2023-02-13T11:25:41.713Z,9.93
2023-02-13T11:30:45.618Z,9.70
2023-02-13T11:35:49.589Z,10.85
2023-02-13T11:41:07.772Z,8.48
2023-02-13T11:46:19.612Z,9.50
2023-02-13T11:51:37.427Z,6.62
2023-02-13T11:57:03.720Z,9.82
2023-02-13T12:02:16.501Z,10.65
2023-02-13T12:07:26.588Z,9.07
2023-02-13T12:12:40.420Z,10.15
2023-02-13T12:17:46.687Z,11.50
2023-02-13T12:23:02.445Z,8.02
2023-02-13T12:28:14.205Z,7.97
2023-02-13T12:33:36.824Z,10.30
2023-02-13T12:38:54.128Z,12.27
2023-02-13T12:44:45.975Z,9.85
2023-02-13T12:50:25.001Z,6.87
2023-02-13T12:55:44.131Z,9.32
2023-02-13T13:00:58.882Z,7.60
2023-02-13T13:06:19.709Z,15.70
2023-02-13T13:11:45.572Z,6.93
2023-02-13T13:16:57.656Z,4.80
2023-02-13T13:22:06.777Z,8.25
2023-02-13T13:27:19.349Z,6.03
2023-02-13T13:32:25.455Z,4.68
2023-02-13T13:37:36.299Z,5.62
2023-02-13T13:42:44.286Z,6.62
2023-02-13T13:48:01.789Z,7.82
2023-02-13T13:53:11.906Z,7.28
2023-02-13T13:58:23.583Z,5.20
2023-02-13T14:03:37.449Z,3.17
2023-02-13T14:09:03.824Z,6.67
2023-02-13T14:14:53.763Z,6.65
2023-02-13T14:19:59.509Z,13.48
2023-02-13T14:25:06.582Z,5.62
2023-02-13T14:30:29.328Z,5.93
2023-02-13T14:35:38.078Z,5.72
2023-02-13T14:40:51.097Z,4.50
2023-02-13T14:45:57.781Z,3.97
2023-02-13T14:51:04.406Z,5.70
2023-02-13T14:56:12.994Z,5.37
2023-02-13T15:01:26.121Z,7.72
2023-02-13T15:06:34.500Z,7.35
2023-02-13T15:11:40.104Z,6.65
2023-02-13T15:16:44.819Z,4.75
2023-02-13T15:21:53.354Z,7.37
2023-02-13T15:27:02.472Z,8.27
2023-02-13T15:32:21.720Z,5.82
2023-02-13T15:37:30.323Z,10.05
2023-02-13T15:42:34.249Z,11.55
2023-02-13T15:47:38.579Z,7.87
2023-02-13T15:52:43.749Z,10.48
2023-02-13T15:57:48.166Z,7.70
2023-02-13T16:02:53.980Z,8.93
2023-02-13T16:08:01.477Z,7.85
2023-02-13T16:13:07.421Z,10.98
2023-02-13T16:18:21.157Z,10.07
2023-02-13T16:23:26.219Z,7.90
2023-02-13T16:28:32.784Z,9.18
2023-02-13T16:33:38.964Z,9.40
2023-02-13T16:38:45.793Z,8.45
2023-02-13T16:43:51.752Z,10.90
2023-02-13T16:49:16.267Z,8.45
2023-02-13T16:54:26.516Z,7.85
2023-02-13T16:59:34.737Z,9.65
2023-02-13T17:04:39.318Z,9.40
2023-02-13T17:09:44.478Z,7.65
2023-02-13T17:14:48.548Z,8.05
2023-02-13T17:19:52.356Z,19.35
2023-02-13T17:24:57.569Z,6.40
2023-02-13T17:30:01.360Z,8.35
2023-02-13T17:35:05.382Z,15.40
2023-02-13T17:40:17.429Z,6.78
2023-02-13T17:45:23.932Z,6.82
2023-02-13T17:50:28.096Z,8.98
2023-02-13T17:55:35.101Z,6.43
2023-02-13T18:00:38.718Z,9.02
2023-02-13T18:05:42.784Z,13.85
2023-02-13T18:10:47.870Z,6.82
2023-02-13T18:15:52.278Z,5.87
2023-02-13T18:26:10.132Z,9.47
2023-02-13T18:31:14.430Z,7.47
2023-02-13T18:36:18.113Z,10.20
2023-02-13T18:41:23.206Z,6.30
2023-02-13T18:46:26.919Z,13.88
2023-02-13T18:51:31.057Z,10.37
2023-02-13T18:56:36.144Z,10.32
2023-02-13T19:01:40.080Z,13.07
2023-02-13T19:06:44.885Z,9.32
2023-02-13T19:11:49.968Z,10.85
2023-02-13T19:16:53.933Z,10.40
2023-02-13T19:21:57.794Z,12.18
2023-02-13T19:27:03.399Z,16.35
2023-02-13T19:32:07.308Z,10.02
2023-02-13T19:37:11.013Z,10.20
2023-02-13T19:42:16.319Z,14.95
2023-02-13T19:47:19.960Z,9.75
2023-02-13T19:52:24.173Z,15.37
2023-02-13T19:57:29.528Z,14.10
2023-02-13T20:02:33.602Z,16.10
2023-02-13T20:07:37.296Z,12.27
2023-02-13T20:12:42.276Z,10.07
2023-02-13T20:17:45.958Z,17.98
2023-02-13T20:22:50.123Z,12.67
2023-02-13T20:27:55.239Z,8.57
2023-02-13T20:32:59.408Z,13.70
2023-02-13T20:38:03.472Z,8.85
2023-02-13T20:43:08.550Z,8.90
2023-02-13T20:48:12.161Z,8.43
2023-02-13T20:53:15.876Z,12.93
2023-02-13T20:58:20.960Z,14.03
2023-02-13T21:03:24.652Z,14.70
2023-02-13T21:08:28.279Z,19.42
2023-02-13T21:13:33.963Z,30.00
2023-02-13T21:18:38.226Z,21.98
2023-02-13T21:23:42.174Z,15.55
2023-02-13T21:28:49.279Z,23.70
2023-02-13T21:33:53.257Z,18.05
2023-02-13T21:38:56.990Z,23.27
2023-02-13T21:44:02.226Z,14.87
2023-02-13T21:49:08.308Z,17.10
2023-02-13T21:54:13.164Z,16.58
2023-02-13T21:59:19.036Z,21.33
2023-02-13T22:04:22.789Z,21.37
2023-02-13T22:09:27.645Z,19.95
2023-02-13T22:14:32.690Z,17.85
2023-02-13T22:19:36.360Z,17.65
2023-02-13T22:24:39.988Z,14.05
2023-02-13T22:29:44.992Z,15.43
2023-02-13T22:34:49.772Z,16.92
2023-02-13T22:39:53.381Z,15.30
2023-02-13T22:44:58.312Z,21.37
2023-02-13T22:50:02.411Z,21.70
2023-02-13T22:55:06.646Z,16.37
2023-02-13T23:00:14.031Z,15.15
2023-02-13T23:05:18.234Z,19.85
2023-02-13T23:10:25.906Z,11.63
2023-02-13T23:15:34.508Z,18.17
2023-02-13T23:20:38.411Z,16.75
2023-02-13T23:25:42.087Z,26.55
